createdAt,value
2023-01-21T00:02:12.270Z,102773.28
2023-01-21T00:07:16.736Z,102767.97
2023-01-21T00:12:21.739Z,102774.03
2023-01-21T00:17:23.430Z,102787.97
2023-01-21T00:22:25.144Z,102799.25
2023-01-21T00:27:26.826Z,102808.03
2023-01-21T00:32:30.831Z,102808.00
2023-01-21T00:37:35.049Z,102818.56
2023-01-21T00:42:37.348Z,102821.22
2023-01-21T00:47:41.962Z,102832.59
2023-01-21T00:52:51.349Z,102836.91
2023-01-21T00:58:00.244Z,102828.22
2023-01-21T01:03:04.923Z,102823.72
2023-01-21T01:08:08.720Z,102838.31
2023-01-21T01:13:17.180Z,102851.22
2023-01-21T01:18:19.812Z,102844.88
2023-01-21T01:23:23.855Z,102868.28
2023-01-21T01:28:25.763Z,102860.25
2023-01-21T01:33:27.919Z,102862.41
2023-01-21T01:38:29.875Z,102861.78
2023-01-21T01:43:53.574Z,102864.50
2023-01-21T01:49:20.115Z,102869.13
2023-01-21T01:54:25.018Z,102881.13
2023-01-21T01:59:29.332Z,102885.84
2023-01-21T02:04:38.171Z,102894.84
2023-01-21T02:09:49.928Z,102902.97
2023-01-21T02:15:02.796Z,102908.91
2023-01-21T02:20:30.154Z,102916.28
2023-01-21T02:25:41.518Z,102904.69
2023-01-21T02:31:31.159Z,102910.03
2023-01-21T02:36:48.758Z,102913.66
2023-01-21T02:42:03.043Z,102917.97
2023-01-21T02:47:16.088Z,102926.53
2023-01-21T02:52:22.005Z,102922.59
2023-01-21T02:57:38.091Z,102923.03
2023-01-21T03:03:11.361Z,102926.91
2023-01-21T03:08:17.821Z,102936.88
2023-01-21T03:13:45.850Z,102926.53
2023-01-21T03:18:55.237Z,102940.78
2023-01-21T03:24:01.236Z,102936.63
2023-01-21T03:29:09.954Z,102939.41
2023-01-21T03:34:18.555Z,102945.88
2023-01-21T03:39:41.772Z,102951.34
2023-01-21T03:44:43.751Z,102962.97
2023-01-21T03:49:53.175Z,102973.59
2023-01-21T03:54:57.004Z,102980.66
2023-01-21T04:00:03.939Z,102981.56
2023-01-21T04:05:07.759Z,102983.41
2023-01-21T04:10:12.009Z,102992.91
2023-01-21T04:15:23.264Z,102989.91
2023-01-21T04:20:30.318Z,102982.09
2023-01-21T04:25:37.393Z,102991.84
2023-01-21T04:30:42.214Z,102991.13
2023-01-21T04:35:47.102Z,103009.56
2023-01-21T04:40:51.255Z,103008.94
2023-01-21T04:45:57.302Z,103013.59
2023-01-21T04:51:01.370Z,103012.06
2023-01-21T04:56:08.460Z,103020.88
2023-01-21T05:01:10.184Z,103035.72
2023-01-21T05:06:14.799Z,103039.59
2023-01-21T05:11:18.266Z,103046.22
2023-01-21T05:16:23.234Z,103042.38
2023-01-21T05:21:24.997Z,103043.06
2023-01-21T05:26:28.934Z,103065.00
2023-01-21T05:31:33.104Z,103059.31
2023-01-21T05:36:39.763Z,103064.91
2023-01-21T05:41:42.207Z,103069.88
2023-01-21T05:46:43.915Z,103071.16
2023-01-21T05:51:50.345Z,103081.84
2023-01-21T05:56:52.304Z,103084.38
2023-01-21T06:01:54.006Z,103094.06
2023-01-21T06:06:55.804Z,103113.56
2023-01-21T06:11:57.552Z,103114.59
2023-01-21T06:17:02.553Z,103115.09
2023-01-21T06:22:04.687Z,103129.78
2023-01-21T06:27:06.383Z,103137.34
2023-01-21T06:32:15.298Z,103145.03
2023-01-21T06:37:22.564Z,103156.19
2023-01-21T06:42:24.278Z,103164.66
2023-01-21T06:47:28.270Z,103170.63
2023-01-21T06:52:29.964Z,103164.47
2023-01-21T06:57:36.513Z,103181.06
2023-01-21T07:02:40.522Z,103180.13
2023-01-21T07:07:44.531Z,103178.34
2023-01-21T07:12:51.060Z,103182.50
2023-01-21T07:17:57.627Z,103190.31
2023-01-21T07:23:01.705Z,103210.44
2023-01-21T07:28:05.730Z,103209.50
2023-01-21T07:33:08.760Z,103213.97
2023-01-21T07:38:10.463Z,103231.44
2023-01-21T07:43:14.527Z,103234.94
2023-01-21T07:48:18.780Z,103238.25
2023-01-21T07:53:22.664Z,103237.94
2023-01-21T07:58:24.482Z,103246.41
2023-01-21T08:03:30.609Z,103258.63
2023-01-21T08:08:35.518Z,103259.56
2023-01-21T08:13:40.247Z,103271.00
2023-01-21T08:18:45.885Z,103264.63
2023-01-21T08:23:55.992Z,103286.53
2023-01-21T08:29:00.979Z,103282.00
2023-01-21T08:34:05.957Z,103290.56
2023-01-21T08:39:15.724Z,103307.81
2023-01-21T08:44:17.619Z,103296.03
2023-01-21T08:49:24.470Z,103312.16
2023-01-21T08:54:26.510Z,103308.09
2023-01-21T08:59:33.157Z,103323.41
2023-01-21T09:04:40.880Z,103335.16
2023-01-21T09:09:42.558Z,103344.41
2023-01-21T09:14:49.124Z,103343.34
2023-01-21T09:19:51.064Z,103344.03
2023-01-21T09:24:58.255Z,103356.41
2023-01-21T09:30:00.008Z,103363.16
2023-01-21T09:35:04.951Z,103363.50
2023-01-21T09:40:09.280Z,103368.78
2023-01-21T09:45:13.790Z,103378.72
2023-01-21T09:50:24.167Z,103373.59
2023-01-21T09:55:36.371Z,103375.44
2023-01-21T10:01:02.065Z,103384.63
2023-01-21T10:06:35.774Z,103374.47
2023-01-21T10:11:53.171Z,103381.91
2023-01-21T10:17:13.213Z,103368.13
2023-01-21T10:22:23.264Z,103381.94
2023-01-21T10:27:33.125Z,103393.69
2023-01-21T10:32:39.427Z,103390.84
2023-01-21T10:37:49.895Z,103392.13
2023-01-21T10:43:03.574Z,103393.94
2023-01-21T10:48:19.666Z,103403.75
2023-01-21T10:54:12.301Z,103397.88
2023-01-21T10:59:23.191Z,103397.22
2023-01-21T11:04:29.621Z,103399.47
2023-01-21T11:09:37.556Z,103405.22
2023-01-21T11:14:41.593Z,103403.25
2023-01-21T11:20:01.594Z,103408.81
2023-01-21T11:25:29.396Z,103409.16
2023-01-21T11:30:58.272Z,103403.47
2023-01-21T11:36:15.629Z,103408.53
2023-01-21T11:41:22.449Z,103407.69
2023-01-21T11:46:39.953Z,103400.53
2023-01-21T11:51:45.465Z,103397.31
2023-01-21T11:56:56.507Z,103394.66
2023-01-21T12:02:12.480Z,103392.28
2023-01-21T12:07:25.122Z,103393.84
2023-01-21T12:13:15.452Z,103395.09
2023-01-21T12:18:47.029Z,103394.41
2023-01-21T12:24:09.965Z,103393.31
2023-01-21T12:29:11.797Z,103397.31
2023-01-21T12:34:33.319Z,103400.50
2023-01-21T12:39:38.348Z,103398.47
2023-01-21T12:44:44.928Z,103383.28
2023-01-21T12:50:05.708Z,103383.34
2023-01-21T12:55:07.863Z,103389.38
2023-01-21T13:00:29.487Z,103384.16
2023-01-21T13:05:47.980Z,103390.91
2023-01-21T13:10:55.754Z,103392.72
2023-01-21T13:16:08.490Z,103387.69
2023-01-21T13:21:28.464Z,103398.09
2023-01-21T13:26:42.500Z,103402.94
2023-01-21T13:31:51.941Z,103406.00
2023-01-21T13:37:03.904Z,103416.06
2023-01-21T13:42:17.801Z,103404.63
2023-01-21T13:47:46.539Z,103408.09
2023-01-21T13:53:09.610Z,103408.09
2023-01-21T13:58:21.175Z,103414.84
2023-01-21T14:03:38.016Z,103414.34
2023-01-21T14:08:43.042Z,103430.56
2023-01-21T14:14:09.720Z,103437.06
2023-01-21T14:19:25.602Z,103438.03
2023-01-21T14:24:51.213Z,103451.75
2023-01-21T14:30:03.497Z,103452.75
2023-01-21T14:35:31.980Z,103455.44
2023-01-21T14:40:37.502Z,103461.03
2023-01-21T14:45:55.682Z,103464.50
2023-01-21T14:51:17.826Z,103461.69
2023-01-21T14:57:10.296Z,103461.38
2023-01-21T15:02:32.311Z,103463.66
2023-01-21T15:07:39.278Z,103459.53
2023-01-21T15:13:25.675Z,103471.84
2023-01-21T15:18:37.875Z,103475.94
2023-01-21T15:23:42.831Z,103476.50
2023-01-21T15:28:58.080Z,103490.28
2023-01-21T15:34:03.012Z,103480.75
2023-01-21T15:39:13.503Z,103492.84
2023-01-21T15:44:55.046Z,103503.09
2023-01-21T15:50:16.573Z,103498.56
2023-01-21T15:55:34.282Z,103500.34
2023-01-21T16:01:05.465Z,103499.34
2023-01-21T16:06:19.411Z,103506.31
2023-01-21T16:11:32.988Z,103502.59
2023-01-21T16:17:06.911Z,103508.56
2023-01-21T16:22:22.973Z,103503.22
2023-01-21T16:27:32.466Z,103496.59
2023-01-21T16:32:34.966Z,103491.00
2023-01-21T16:37:39.636Z,103496.47
2023-01-21T16:42:45.182Z,103491.19
2023-01-21T16:48:00.697Z,103490.53
2023-01-21T16:53:06.683Z,103491.78
2023-01-21T16:58:29.632Z,103484.06
2023-01-21T17:03:32.396Z,103491.28
2023-01-21T17:08:35.494Z,103481.66
2023-01-21T17:13:40.584Z,103480.44
2023-01-21T17:18:51.960Z,103483.03
2023-01-21T17:24:03.455Z,103489.00
2023-01-21T17:29:19.851Z,103486.31
2023-01-21T17:34:30.771Z,103482.75
2023-01-21T17:39:50.409Z,103480.25
2023-01-21T17:44:55.063Z,103481.47
2023-01-21T17:50:21.412Z,103490.94
2023-01-21T17:55:33.173Z,103493.69
2023-01-21T18:00:45.469Z,103484.25
2023-01-21T18:05:51.546Z,103490.59
2023-01-21T18:10:57.639Z,103487.25
2023-01-21T18:16:04.196Z,103493.91
2023-01-21T18:21:06.905Z,103490.75
2023-01-21T18:26:27.696Z,103491.91
2023-01-21T18:31:32.628Z,103492.00
2023-01-21T18:36:39.340Z,103497.34
2023-01-21T18:41:47.004Z,103491.19
2023-01-21T18:46:48.767Z,103503.50
2023-01-21T18:51:50.491Z,103498.41
2023-01-21T18:56:52.317Z,103504.44
2023-01-21T19:01:54.128Z,103497.53
2023-01-21T19:06:57.338Z,103493.00
2023-01-21T19:12:07.619Z,103497.59
2023-01-21T19:17:13.792Z,103492.97
2023-01-21T19:22:15.731Z,103495.59
2023-01-21T19:27:28.328Z,103490.13
2023-01-21T19:32:30.077Z,103490.94
2023-01-21T19:37:31.825Z,103496.06
2023-01-21T19:42:38.444Z,103496.75
2023-01-21T19:47:44.770Z,103494.19
2023-01-21T19:52:51.740Z,103497.72
2023-01-21T19:57:58.662Z,103496.91
2023-01-21T20:03:02.843Z,103493.25
2023-01-21T20:08:07.705Z,103504.66
2023-01-21T20:13:13.880Z,103514.19
2023-01-21T20:18:24.527Z,103507.09
2023-01-21T20:23:26.836Z,103528.41
2023-01-21T20:28:40.581Z,103542.75
2023-01-21T20:33:44.154Z,103552.44
2023-01-21T20:38:46.168Z,103549.00
2023-01-21T20:43:53.333Z,103561.53
2023-01-21T20:48:56.049Z,103552.13
2023-01-21T20:54:00.505Z,103553.25
2023-01-21T20:59:08.658Z,103546.53
2023-01-21T21:04:12.701Z,103559.16
2023-01-21T21:09:22.105Z,103551.19
2023-01-21T21:14:24.025Z,103548.75
2023-01-21T21:19:29.074Z,103556.69
2023-01-21T21:24:34.291Z,103554.09
2023-01-21T21:29:39.018Z,103556.31
2023-01-21T21:34:41.009Z,103556.50
2023-01-21T21:39:42.726Z,103558.63
2023-01-21T21:44:51.092Z,103561.91
2023-01-21T21:49:55.062Z,103548.19
2023-01-21T21:54:56.799Z,103546.41
2023-01-21T22:00:02.749Z,103559.13
2023-01-21T22:05:11.509Z,103544.75
2023-01-21T22:10:15.469Z,103545.19
2023-01-21T22:15:21.761Z,103542.19
2023-01-21T22:20:28.074Z,103544.78
2023-01-21T22:25:33.189Z,103547.81
2023-01-21T22:30:42.900Z,103546.22
2023-01-21T22:35:46.926Z,103544.03
2023-01-21T22:40:55.166Z,103532.25
2023-01-21T22:45:59.947Z,103530.34
2023-01-21T22:51:04.484Z,103523.75
2023-01-21T22:56:11.567Z,103531.47
2023-01-21T23:01:31.705Z,103523.03
2023-01-21T23:06:33.496Z,103516.47
2023-01-21T23:11:41.573Z,103520.97
2023-01-21T23:16:45.617Z,103523.66
2023-01-21T23:21:49.390Z,103519.34
2023-01-21T23:26:53.635Z,103520.81
2023-01-21T23:31:57.718Z,103517.81
2023-01-21T23:37:04.121Z,103516.47
2023-01-21T23:42:10.608Z,103499.47
2023-01-21T23:47:12.329Z,103497.31
2023-01-21T23:52:18.715Z,103493.59
2023-01-21T23:57:22.655Z,103501.41
